• Join FlightAware (Why Join?)
  • Login
  • US Flag 
03:08AM EDT


 

Airport Tracker/Info


-or-


 

Live Flight TrackerFlight Track Log ✈ AWE3374 ✈ 20-Sep-2013 ✈ KBUF - KDCA

Flight Track Log - Related Links

Times and Time Zones

All times are in EDT time to prevent confusion due to time zone crossing. See the AWE3374 flight status page for this flight to view local times or setup timezone preferences in your user account.

Time Position Orientation Groundspeed Altitude Reporting Facility
EDT Latitude Longitude Course Direction KTS MPH feet Rate Location/Type
12:18PM 42.9333 -78.7500 180° South 144 166 1,500  Level Buffalo TRACON
12:19PM 42.9167 -78.7500 180° South 147 169 2,100 2,040 Climbing Buffalo TRACON
12:20PM 42.8478 -78.7333 170° South 204 235 4,800 2,460 Climbing Cleveland Center
12:21PM 42.6704 -78.6117 180° South  Level Estimated
12:21PM 42.7672 -78.7225 174° South 267 307 8,100  Level Cleveland Center
12:22PM 42.5803 -78.5723 174° South  Level Estimated
12:22PM 42.6956 -78.7094 172° South 284 327 10,700  Level Cleveland Center
12:23PM 42.4773 -78.5826 184° South  Level FlightAware Approximate
12:23PM 42.5806 -78.6911 173° South 356 410 12,300  Level Cleveland Center
12:24PM 42.3792 -78.5384 180° South  Level Estimated
12:24PM 42.4758 -78.6747 173° South 379 436 14,700  Level Cleveland Center
12:25PM 42.3647 -78.6589 174° South 396 456 16,800 1,860 Climbing Cleveland Center
12:26PM 42.2539 -78.6431 174° South 401 461 18,600 1,680 Climbing Cleveland Center
12:27PM 42.1397 -78.6294 175° South 415 478 20,400 1,680 Climbing Cleveland Center
12:28PM 41.9953 -78.6239 178° South 439 505 22,200 1,560 Climbing Cleveland Center
12:29PM 41.8725 -78.6228 180° South 446 513 23,700 1,320 Climbing Cleveland Center
12:30PM 41.7514 -78.5958 171° South 454 522 25,000 1,140 Climbing Cleveland Center
12:31PM 41.6406 -78.5136 151° Southeast 459 528 26,100 780 Climbing Cleveland Center
12:32PM 41.5261 -78.4308 152° Southeast 468 539 26,700 -300 Climbing Cleveland Center
12:33PM 41.3875 -78.3317 152° Southeast 472 543 25,500 -1,020 Descending Cleveland Center
12:34PM 41.3411 -78.2961 150° Southeast 493 567 25,100 -360 Descending New York Center
12:35PM 41.2317 -78.2175 152° Southeast 474 545 25,000 -60 Descending New York Center
12:36PM 41.1239 -78.1397 151° Southeast 455 524 25,000  Level New York Center
12:36PM 41.0578 -78.0939 152° Southeast 447 514 25,000  Level Cleveland Center
12:38PM 40.9472 -78.0150 152° Southeast 450 518 25,000  Level Cleveland Center
12:39PM 40.8489 -77.9153 142° Southeast 449 517 25,000 -900 Level Cleveland Center
12:40PM 40.7539 -77.8086 140° Southeast 450 518 23,200 -2,040 Descending Cleveland Center
12:41PM 40.6453 -77.6856 139° Southeast 433 498 20,800 -2,160 Descending Cleveland Center
12:42PM 40.5558 -77.5839 139° Southeast 429 494 18,800 -1,380 Descending Cleveland Center
12:43PM 40.4694 -77.4869 139° Southeast 414 476 18,000 -420 Descending Cleveland Center
12:44PM 40.3825 -77.3903 140° Southeast 413 475 18,000  Level Cleveland Center
12:45PM 40.2961 -77.2928 139° Southeast 413 475 18,000  Level Cleveland Center
12:46PM 40.1906 -77.1753 140° Southeast 415 478 18,000  Level Cleveland Center
12:51PM 39.7310 -76.6630 140° Southeast 100 115 18,000  Level FlightAware
12:52PM 39.7200 -76.6490 136° Southeast 100 115 18,000  Level FlightAware
12:53PM 39.7100 -76.6360 135° Southeast 100 115 18,000  Level FlightAware
12:53PM 39.7000 -76.6220 133° Southeast 100 115 18,000  Level FlightAware
12:54PM 39.6890 -76.6090 138° Southeast 100 115 18,000  Level FlightAware
12:54PM 39.6790 -76.5960 135° Southeast 100 115 18,000  Level FlightAware
12:55PM 39.6690 -76.5830 135° Southeast 100 115 18,000 -3,600 Level FlightAware
12:57PM 39.1833 -76.6667 224° Southwest 286 329 10,000 -3,060 Descending Potomac TRACON
12:58PM 39.1333 -76.7167 218° Southwest 251 289 10,000 -420 Level Potomac TRACON
01:00PM 39.0167 -76.8333 218° Southwest 245 282 8,800 -840 Descending Potomac TRACON
01:02PM 39.0550 -76.7730 224° Southwest  Level FlightAware Approximate
01:02PM 38.8639 -76.9333 180° South  Level FlightAware Approximate
01:03PM 38.9833 -77.0333 180° South 216 249 6,000  Level Potomac TRACON
01:04PM 39.0333 -77.0833 322° Northwest 181 208 5,300 -900 Descending Potomac TRACON
01:05PM 39.0500 -77.1333 293° West 179 206 4,200 -1,200 Descending Potomac TRACON
01:06PM 39.0333 -77.1833 247° West 184 212 3,000 -600 Descending Potomac TRACON
01:07PM 38.9833 -77.1500 153° Southeast 169 194 3,000 -420 Level Potomac TRACON
01:08PM 38.9500 -77.1333 159° South 170 196 2,200 -900 Descending Potomac TRACON
01:09PM 38.9167 -77.1000 142° Southeast 137 158 1,300 -720 Descending Potomac TRACON
01:10PM 38.9000 -77.0667 123° Southeast 131 151 700 -600 Descending Potomac TRACON